Time;durP1;ratioP1;P1;durP2;ratioP2;P2;SDS_P1;SDS_P2;PMS_P1;PMS_P2;Temp;Humidity;BMP_temperature;BMP_pressure;BME280_temperature;BME280_humidity;BME280_pressure;Samples;Min_cycle;Max_cycle;Signal;HPM_P1;HPM_P2
2023/12/15 00:00:38;;;;;;;;;;;6.40;99.90;;;;;;5042335;28;19921;-66
2023/12/15 00:03:04;;;;;;;;;;;6.30;99.90;;;;;;5041709;28;20026;-66
2023/12/15 00:05:33;;;;;;;;;;;6.30;99.90;;;;;;5045564;28;19920;-66
2023/12/15 00:07:59;;;;;;;;;;;6.40;99.90;;;;;;5041524;28;20093;-66
2023/12/15 00:10:25;;;;;;;;;;;6.30;99.90;;;;;;5045287;28;19931;-66
2023/12/15 00:12:50;;;;;;;;;;;6.30;99.90;;;;;;5043520;28;19920;-66
2023/12/15 00:15:15;;;;;;;;;;;6.30;99.90;;;;;;5042353;28;20004;-66
2023/12/15 00:17:41;;;;;;;;;;;6.30;99.90;;;;;;5040429;28;19924;-66
2023/12/15 00:20:07;;;;;;;;;;;6.30;99.90;;;;;;5043425;28;19959;-66
2023/12/15 00:22:33;;;;;;;;;;;6.20;99.90;;;;;;5040768;28;19931;-66
2023/12/15 00:24:58;;;;;;;;;;;6.30;99.90;;;;;;5042665;28;19917;-66
2023/12/15 00:27:24;;;;;;;;;;;6.30;99.90;;;;;;5041564;28;20386;-66
2023/12/15 00:29:49;;;;;;;;;;;6.30;99.90;;;;;;5042459;28;19920;-66
2023/12/15 00:32:14;;;;;;;;;;;6.30;99.90;;;;;;5041272;28;19932;-66
2023/12/15 00:34:40;;;;;;;;;;;6.40;99.90;;;;;;5044344;28;20107;-66
2023/12/15 00:37:05;;;;;;;;;;;6.40;99.90;;;;;;5038852;28;20264;-66
2023/12/15 00:39:35;;;;;;;;;;;6.30;99.90;;;;;;5042977;28;19960;-66
2023/12/15 00:42:00;;;;;;;;;;;6.30;99.90;;;;;;5040892;28;19920;-66
2023/12/15 00:44:25;;;;;;;;;;;6.10;99.90;;;;;;5042445;28;19927;-66
2023/12/15 00:46:53;;;;;;;;;;;6.20;99.90;;;;;;5049707;22;19939;-66
2023/12/15 00:49:21;;;;;;;;;;;6.20;99.90;;;;;;5057015;28;19924;-66
2023/12/15 00:51:46;;;;;;;;;;;6.20;99.90;;;;;;5083355;28;19961;-66
2023/12/15 00:54:14;;;;;;;;;;;6.20;99.90;;;;;;5081063;28;19920;-66
2023/12/15 00:56:40;;;;;;;;;;;6.20;99.90;;;;;;5058848;28;19915;-66
2023/12/15 00:59:05;;;;;;;;;;;6.30;99.90;;;;;;5052572;28;19917;-66
2023/12/15 01:01:33;;;;;;;;;;;6.30;99.90;;;;;;5049550;28;19923;-66
2023/12/15 01:03:59;;;;;;;;;;;6.40;99.90;;;;;;5050790;28;19920;-66
2023/12/15 01:06:24;;;;;;;;;;;6.40;99.90;;;;;;5047578;28;19985;-66
2023/12/15 01:08:50;;;;;;;;;;;6.30;99.90;;;;;;5053125;28;19920;-66
2023/12/15 01:11:17;;;;;;;;;;;6.30;99.90;;;;;;5048521;28;19916;-66
2023/12/15 01:13:43;;;;;;;;;;;6.30;99.90;;;;;;5052981;28;20453;-66
2023/12/15 01:16:08;;;;;;;;;;;6.30;99.90;;;;;;5047525;28;20450;-66
2023/12/15 01:18:36;;;;;;;;;;;6.20;99.90;;;;;;5048908;28;19927;-66
2023/12/15 01:21:02;;;;;;;;;;;6.20;99.90;;;;;;5048754;28;19916;-66
2023/12/15 01:23:28;;;;;;;;;;;6.20;99.90;;;;;;5049699;28;19920;-66
2023/12/15 01:25:53;;;;;;;;;;;6.30;99.90;;;;;;5048514;28;20434;-66
2023/12/15 01:28:21;;;;;;;;;;;6.40;99.90;;;;;;5065298;28;19947;-66
2023/12/15 01:30:47;;;;;;;;;;;6.40;99.90;;;;;;5046663;28;19920;-66
2023/12/15 01:33:12;;;;;;;;;;;6.40;99.90;;;;;;5050559;28;19969;-66
2023/12/15 01:35:38;;;;;;;;;;;6.40;99.90;;;;;;5052578;28;19916;-66
2023/12/15 01:38:03;;;;;;;;;;;6.30;99.90;;;;;;5049696;28;19978;-66
2023/12/15 01:40:29;;;;;;;;;;;6.30;99.90;;;;;;5047208;28;21918;-66
2023/12/15 01:42:57;;;;;;;;;;;6.30;99.90;;;;;;5048990;28;19920;-66
2023/12/15 01:45:25;;;;;;;;;;;6.30;99.90;;;;;;5046661;28;19963;-66
2023/12/15 01:47:51;;;;;;;;;;;6.30;99.90;;;;;;5050416;28;19920;-66
2023/12/15 01:50:18;;;;;;;;;;;6.40;99.90;;;;;;5046872;28;20102;-66
2023/12/15 01:52:44;;;;;;;;;;;6.30;99.90;;;;;;5050081;28;20004;-66
2023/12/15 01:55:09;;;;;;;;;;;6.20;99.90;;;;;;5047014;28;20578;-66
2023/12/15 01:57:35;;;;;;;;;;;6.20;99.90;;;;;;5049847;28;19916;-66
2023/12/15 02:00:06;;;;;;;;;;;6.10;99.90;;;;;;5048182;28;20047;-66
2023/12/15 02:02:35;;;;;;;;;;;6.20;99.90;;;;;;5046888;28;20054;-66
2023/12/15 02:05:01;;;;;;;;;;;6.30;99.90;;;;;;5039767;28;19917;-66
2023/12/15 02:07:27;;;;;;;;;;;6.20;99.90;;;;;;5047866;28;20035;-66
2023/12/15 02:09:53;;;;;;;;;;;6.30;99.90;;;;;;5047302;28;19988;-66
2023/12/15 02:12:18;;;;;;;;;;;6.20;99.90;;;;;;5049451;28;20645;-66
2023/12/15 02:14:44;;;;;;;;;;;6.30;99.90;;;;;;5050349;28;20083;-66
2023/12/15 02:17:14;;;;;;;;;;;6.20;99.90;;;;;;5047532;28;19981;-66
2023/12/15 02:19:40;;;;;;;;;;;6.30;99.90;;;;;;5050433;28;19917;-66
2023/12/15 02:22:05;;;;;;;;;;;6.30;99.90;;;;;;5048407;28;20076;-66
2023/12/15 02:24:31;;;;;;;;;;;6.30;99.90;;;;;;5048888;28;19959;-66
2023/12/15 02:26:57;;;;;;;;;;;6.40;99.90;;;;;;5045122;28;20535;-66
2023/12/15 02:29:22;;;;;;;;;;;6.40;99.90;;;;;;5050047;28;19979;-66
2023/12/15 02:31:48;;;;;;;;;;;6.40;99.90;;;;;;5047080;28;20423;-66
2023/12/15 02:34:13;;;;;;;;;;;6.40;99.90;;;;;;5050324;28;19959;-66
2023/12/15 02:36:39;;;;;;;;;;;6.40;99.90;;;;;;5048509;28;19917;-66
2023/12/15 02:39:04;;;;;;;;;;;6.40;99.90;;;;;;5049930;28;19920;-66
2023/12/15 02:41:30;;;;;;;;;;;6.40;99.90;;;;;;5048650;28;19920;-66
2023/12/15 02:43:55;;;;;;;;;;;6.40;99.90;;;;;;5048243;28;20091;-66
2023/12/15 02:46:21;;;;;;;;;;;6.30;99.90;;;;;;5046200;28;20479;-66
2023/12/15 02:48:49;;;;;;;;;;;6.40;99.90;;;;;;5048763;28;19935;-66
2023/12/15 02:51:27;;;;;;;;;;;6.40;99.90;;;;;;5047357;28;20067;-66
2023/12/15 02:53:53;;;;;;;;;;;6.40;99.90;;;;;;5047886;28;20591;-68
2023/12/15 02:56:23;;;;;;;;;;;6.30;99.90;;;;;;5046907;28;20410;-67
2023/12/15 02:58:49;;;;;;;;;;;6.40;99.90;;;;;;5047962;28;19920;-68
2023/12/15 03:01:16;;;;;;;;;;;6.30;99.90;;;;;;5048916;28;19919;-68
2023/12/15 03:03:42;;;;;;;;;;;6.30;99.90;;;;;;5049682;28;20018;-68
2023/12/15 03:06:08;;;;;;;;;;;6.30;99.90;;;;;;5050505;28;19923;-68
2023/12/15 03:08:36;;;;;;;;;;;6.30;99.90;;;;;;5054321;28;19920;-68
2023/12/15 03:11:03;;;;;;;;;;;6.30;99.90;;;;;;5051761;28;19924;-68
2023/12/15 03:13:29;;;;;;;;;;;6.40;99.90;;;;;;5051679;28;20370;-68
2023/12/15 03:16:08;;;;;;;;;;;6.30;99.90;;;;;;5050638;28;20003;-68
2023/12/15 03:18:33;;;;;;;;;;;6.30;99.90;;;;;;5052846;28;19993;-68
2023/12/15 03:21:04;;;;;;;;;;;6.30;99.90;;;;;;5053005;28;19968;-68
2023/12/15 03:23:29;;;;;;;;;;;6.30;99.90;;;;;;5052599;28;19916;-68
2023/12/15 03:25:55;;;;;;;;;;;6.30;99.90;;;;;;5050532;28;19913;-68
2023/12/15 03:28:21;;;;;;;;;;;6.30;99.90;;;;;;5052890;28;19920;-68
2023/12/15 03:30:46;;;;;;;;;;;6.30;99.90;;;;;;5049041;28;19928;-67
2023/12/15 03:33:12;;;;;;;;;;;6.30;99.90;;;;;;5051240;28;20011;-67
2023/12/15 03:35:37;;;;;;;;;;;6.30;99.90;;;;;;5050994;28;19927;-68
2023/12/15 03:38:03;;;;;;;;;;;6.30;99.90;;;;;;5052094;28;19973;-68
2023/12/15 03:40:33;;;;;;;;;;;6.30;99.90;;;;;;5052339;28;21294;-68
2023/12/15 03:43:01;;;;;;;;;;;6.30;99.90;;;;;;5050797;28;21633;-67
2023/12/15 03:45:28;;;;;;;;;;;6.30;99.90;;;;;;5051502;28;19920;-68
2023/12/15 03:47:56;;;;;;;;;;;6.30;99.90;;;;;;5049603;28;20386;-68
2023/12/15 03:50:22;;;;;;;;;;;6.30;99.90;;;;;;5048947;28;20596;-67
2023/12/15 03:52:47;;;;;;;;;;;6.30;99.90;;;;;;5050453;28;20007;-67
2023/12/15 03:55:15;;;;;;;;;;;6.30;99.90;;;;;;5049658;28;20409;-67
2023/12/15 03:57:40;;;;;;;;;;;6.30;99.90;;;;;;5052590;28;19920;-67
2023/12/15 04:00:08;;;;;;;;;;;6.30;99.90;;;;;;5048399;28;20075;-67
2023/12/15 04:02:33;;;;;;;;;;;6.30;99.90;;;;;;5049714;28;20003;-68
2023/12/15 04:04:59;;;;;;;;;;;6.30;99.90;;;;;;5051475;28;20324;-68
2023/12/15 04:07:24;;;;;;;;;;;6.30;99.90;;;;;;5053295;28;19962;-67
2023/12/15 04:09:50;;;;;;;;;;;6.30;99.90;;;;;;5048283;28;20313;-67
2023/12/15 04:12:16;;;;;;;;;;;6.40;99.90;;;;;;5051033;28;20013;-68
2023/12/15 04:14:41;;;;;;;;;;;6.50;99.90;;;;;;5054546;28;20075;-68
2023/12/15 04:17:07;;;;;;;;;;;6.50;99.90;;;;;;5048532;28;19916;-68
2023/12/15 04:19:35;;;;;;;;;;;6.50;99.90;;;;;;5051912;28;19927;-67
2023/12/15 04:22:01;;;;;;;;;;;6.40;99.90;;;;;;5050058;28;19946;-67
2023/12/15 04:24:28;;;;;;;;;;;6.50;99.90;;;;;;5050556;28;20291;-67
2023/12/15 04:26:57;;;;;;;;;;;6.50;99.90;;;;;;5050012;28;19921;-67
2023/12/15 04:29:27;;;;;;;;;;;6.50;99.90;;;;;;5051109;28;19913;-68
2023/12/15 04:31:54;;;;;;;;;;;6.50;99.90;;;;;;5047940;28;20005;-67
2023/12/15 04:34:20;;;;;;;;;;;6.50;99.90;;;;;;5050022;28;19924;-67
2023/12/15 04:36:47;;;;;;;;;;;6.50;99.90;;;;;;5051767;28;19916;-68
2023/12/15 04:39:13;;;;;;;;;;;6.50;99.90;;;;;;5049165;28;19916;-68
2023/12/15 04:41:38;;;;;;;;;;;6.50;99.90;;;;;;5049230;28;19912;-68
2023/12/15 04:44:04;;;;;;;;;;;6.40;99.90;;;;;;5049137;28;19935;-68
2023/12/15 04:46:30;;;;;;;;;;;6.50;99.90;;;;;;5049372;28;20027;-68
2023/12/15 04:48:58;;;;;;;;;;;6.50;99.90;;;;;;5050232;28;19932;-68
2023/12/15 04:51:25;;;;;;;;;;;6.40;99.90;;;;;;5048097;28;19920;-68
2023/12/15 04:53:51;;;;;;;;;;;6.40;99.90;;;;;;5049021;28;20549;-68
2023/12/15 04:56:19;;;;;;;;;;;6.40;99.90;;;;;;5048039;28;19931;-68
2023/12/15 04:58:45;;;;;;;;;;;6.40;99.90;;;;;;5050034;28;20072;-68
2023/12/15 05:01:12;;;;;;;;;;;6.40;99.90;;;;;;5048686;28;19913;-68
2023/12/15 05:03:42;;;;;;;;;;;6.40;99.90;;;;;;5050081;28;19920;-68
2023/12/15 05:06:31;;;;;;;;;;;6.40;99.90;;;;;;5049026;28;20026;-67
2023/12/15 05:08:56;;;;;;;;;;;6.50;99.90;;;;;;5048884;28;20010;-68
2023/12/15 05:11:22;;;;;;;;;;;6.50;99.90;;;;;;5047565;28;22061;-68
2023/12/15 05:13:50;;;;;;;;;;;6.40;99.90;;;;;;5049023;28;19924;-68
2023/12/15 05:16:17;;;;;;;;;;;6.50;99.90;;;;;;5046903;28;19923;-68
2023/12/15 05:18:43;;;;;;;;;;;6.50;99.90;;;;;;5049024;28;19920;-68
2023/12/15 05:21:11;;;;;;;;;;;6.50;99.90;;;;;;5049192;28;20030;-68
2023/12/15 05:23:39;;;;;;;;;;;6.60;99.90;;;;;;5050632;28;19928;-68
2023/12/15 05:26:07;;;;;;;;;;;6.60;99.90;;;;;;5046302;28;19974;-67
2023/12/15 05:28:32;;;;;;;;;;;6.60;99.90;;;;;;5048418;28;19928;-68
2023/12/15 05:30:58;;;;;;;;;;;6.60;99.90;;;;;;5049875;28;19934;-68
2023/12/15 05:33:26;;;;;;;;;;;6.60;99.90;;;;;;5048923;28;19924;-68
2023/12/15 05:35:51;;;;;;;;;;;6.70;99.90;;;;;;5047870;28;19970;-68
2023/12/15 05:38:17;;;;;;;;;;;6.70;99.90;;;;;;5050412;28;20248;-68
2023/12/15 05:40:42;;;;;;;;;;;6.70;99.90;;;;;;5047443;28;20444;-68
2023/12/15 05:43:08;;;;;;;;;;;6.80;99.90;;;;;;5049659;28;19926;-68
2023/12/15 05:45:33;;;;;;;;;;;6.80;99.90;;;;;;5044597;28;20468;-68
2023/12/15 05:47:59;;;;;;;;;;;6.80;99.90;;;;;;5049895;28;19925;-68
2023/12/15 05:50:27;;;;;;;;;;;6.80;99.90;;;;;;5047324;28;19912;-68
2023/12/15 05:52:52;;;;;;;;;;;6.80;99.90;;;;;;5049446;28;20200;-68
2023/12/15 05:55:20;;;;;;;;;;;6.90;99.90;;;;;;5046844;28;19959;-68
2023/12/15 05:57:48;;;;;;;;;;;6.80;99.90;;;;;;5050584;28;19913;-68
2023/12/15 06:00:14;;;;;;;;;;;6.90;99.90;;;;;;5046395;28;22932;-68
2023/12/15 06:02:42;;;;;;;;;;;6.80;99.90;;;;;;5048306;28;20011;-68
2023/12/15 06:05:08;;;;;;;;;;;6.70;99.90;;;;;;5048271;28;19920;-68
2023/12/15 06:07:34;;;;;;;;;;;6.70;99.90;;;;;;5049226;28;20350;-68
2023/12/15 06:10:01;;;;;;;;;;;6.70;99.90;;;;;;5045429;28;19921;-68
2023/12/15 06:12:27;;;;;;;;;;;6.80;99.90;;;;;;5048983;28;19920;-68
2023/12/15 06:14:52;;;;;;;;;;;6.80;99.90;;;;;;5050066;28;20307;-68
2023/12/15 06:17:20;;;;;;;;;;;6.80;99.90;;;;;;5047888;28;19928;-68
2023/12/15 06:19:45;;;;;;;;;;;6.80;99.90;;;;;;5049342;28;19916;-68
2023/12/15 06:22:13;;;;;;;;;;;6.80;99.90;;;;;;5049827;28;19927;-68
2023/12/15 06:24:40;;;;;;;;;;;6.80;99.90;;;;;;5049365;28;19920;-68
2023/12/15 06:27:07;;;;;;;;;;;6.80;99.90;;;;;;5048001;28;19920;-68
2023/12/15 06:29:35;;;;;;;;;;;6.90;99.90;;;;;;5046830;28;19978;-68
2023/12/15 06:32:03;;;;;;;;;;;6.90;99.90;;;;;;5049170;28;19920;-68
2023/12/15 06:34:28;;;;;;;;;;;6.90;99.90;;;;;;5061332;28;20407;-68
2023/12/15 06:36:59;;;;;;;;;;;7.00;99.90;;;;;;5048002;28;19921;-68
2023/12/15 06:39:24;;;;;;;;;;;7.00;99.90;;;;;;5048803;28;19973;-68
2023/12/15 06:41:50;;;;;;;;;;;7.10;99.90;;;;;;5048027;28;21811;-68
2023/12/15 06:44:15;;;;;;;;;;;7.20;99.90;;;;;;5051694;28;19912;-68
2023/12/15 06:46:41;;;;;;;;;;;7.10;99.90;;;;;;5069488;22;19916;-68
2023/12/15 06:49:06;;;;;;;;;;;7.10;99.90;;;;;;5040037;28;19921;-68
2023/12/15 06:51:34;;;;;;;;;;;7.10;99.90;;;;;;5062956;28;19913;-68
2023/12/15 06:53:59;;;;;;;;;;;7.00;99.90;;;;;;5059393;28;19925;-68
2023/12/15 06:56:25;;;;;;;;;;;7.00;99.90;;;;;;5036383;28;20008;-68
2023/12/15 06:58:50;;;;;;;;;;;7.00;99.90;;;;;;5033535;28;19921;-68
2023/12/15 07:01:16;;;;;;;;;;;7.00;99.90;;;;;;5031170;28;19921;-68
2023/12/15 07:03:41;;;;;;;;;;;7.00;99.90;;;;;;5035829;28;19943;-68
2023/12/15 07:06:07;;;;;;;;;;;7.10;99.90;;;;;;5034585;28;19929;-68
2023/12/15 07:08:34;;;;;;;;;;;7.10;99.90;;;;;;5036947;28;21965;-68
2023/12/15 07:11:00;;;;;;;;;;;7.10;99.90;;;;;;5033860;28;20043;-68
2023/12/15 07:13:28;;;;;;;;;;;7.10;99.90;;;;;;5039528;28;20392;-68
2023/12/15 07:15:53;;;;;;;;;;;7.10;99.90;;;;;;5031314;28;19920;-68
2023/12/15 07:18:19;;;;;;;;;;;7.10;99.90;;;;;;5037669;28;20556;-68
2023/12/15 07:20:46;;;;;;;;;;;7.10;99.90;;;;;;5035404;28;20002;-68
2023/12/15 07:23:12;;;;;;;;;;;7.10;99.90;;;;;;5032964;28;19920;-68
2023/12/15 07:25:37;;;;;;;;;;;7.00;99.90;;;;;;5030060;28;21641;-68
2023/12/15 07:28:04;;;;;;;;;;;7.00;99.90;;;;;;5033197;28;20208;-68
2023/12/15 07:30:29;;;;;;;;;;;7.00;99.90;;;;;;5036639;28;20038;-68
2023/12/15 07:32:57;;;;;;;;;;;6.90;99.90;;;;;;5037219;28;19916;-68
2023/12/15 07:35:24;;;;;;;;;;;7.00;99.90;;;;;;5037005;28;20553;-68
2023/12/15 07:37:51;;;;;;;;;;;7.00;99.90;;;;;;5037747;28;19920;-68
2023/12/15 07:40:17;;;;;;;;;;;7.00;99.90;;;;;;5035157;28;19927;-68
2023/12/15 07:42:42;;;;;;;;;;;7.00;99.90;;;;;;5032604;28;19916;-68
2023/12/15 07:45:08;;;;;;;;;;;6.90;99.90;;;;;;5031417;28;21473;-68
2023/12/15 07:47:36;;;;;;;;;;;6.90;99.90;;;;;;5031408;28;19979;-68
2023/12/15 07:50:01;;;;;;;;;;;7.00;99.90;;;;;;5032075;28;20616;-68
2023/12/15 07:52:32;;;;;;;;;;;7.00;99.90;;;;;;5034074;28;19932;-68
2023/12/15 07:54:57;;;;;;;;;;;7.10;99.90;;;;;;5030937;28;19920;-68
2023/12/15 07:57:25;;;;;;;;;;;7.10;99.90;;;;;;5035889;28;20013;-68
2023/12/15 07:59:50;;;;;;;;;;;7.10;99.90;;;;;;5034002;28;19916;-68
2023/12/15 08:02:20;;;;;;;;;;;7.00;99.90;;;;;;5035048;28;20348;-68
2023/12/15 08:04:45;;;;;;;;;;;7.10;99.90;;;;;;5034296;28;20036;-68
2023/12/15 08:07:11;;;;;;;;;;;7.10;99.90;;;;;;5033873;28;20162;-68
2023/12/15 08:09:39;;;;;;;;;;;7.10;99.90;;;;;;5034546;28;19979;-68
2023/12/15 08:12:07;;;;;;;;;;;7.10;99.90;;;;;;5033117;28;19920;-68
2023/12/15 08:14:35;;;;;;;;;;;7.20;99.90;;;;;;5032414;28;20025;-68
2023/12/15 08:17:02;;;;;;;;;;;7.10;99.90;;;;;;5035225;28;20466;-68
2023/12/15 08:19:31;;;;;;;;;;;7.20;99.90;;;;;;5032355;28;19920;-68
2023/12/15 08:22:01;;;;;;;;;;;7.20;99.90;;;;;;5035410;28;19928;-68
2023/12/15 08:24:27;;;;;;;;;;;7.20;99.90;;;;;;5034367;28;19920;-68
2023/12/15 08:26:53;;;;;;;;;;;7.20;99.90;;;;;;5033299;28;19928;-69
2023/12/15 08:29:22;;;;;;;;;;;7.20;99.90;;;;;;5032420;28;19927;-68
2023/12/15 08:31:49;;;;;;;;;;;7.20;99.90;;;;;;5034645;28;19921;-68
2023/12/15 08:34:16;;;;;;;;;;;7.20;99.90;;;;;;5032588;28;20431;-68
2023/12/15 08:36:43;;;;;;;;;;;7.30;99.90;;;;;;5033876;28;20163;-68
2023/12/15 08:39:09;;;;;;;;;;;7.30;99.90;;;;;;5036301;28;20543;-68
2023/12/15 08:41:34;;;;;;;;;;;7.30;99.90;;;;;;5034198;28;19935;-68
2023/12/15 08:44:02;;;;;;;;;;;7.40;99.90;;;;;;5033482;28;20472;-68
2023/12/15 08:46:28;;;;;;;;;;;7.50;99.90;;;;;;5033760;28;19927;-68
2023/12/15 08:48:56;;;;;;;;;;;7.50;99.90;;;;;;5034315;28;21224;-68
2023/12/15 08:51:21;;;;;;;;;;;7.50;99.90;;;;;;5032777;28;19956;-68
2023/12/15 08:53:49;;;;;;;;;;;7.50;99.90;;;;;;5032812;28;20307;-68
2023/12/15 08:56:15;;;;;;;;;;;7.60;99.90;;;;;;5032460;28;19979;-68
2023/12/15 08:58:40;;;;;;;;;;;7.60;99.90;;;;;;5034787;28;20441;-68
2023/12/15 09:01:08;;;;;;;;;;;7.70;99.90;;;;;;5031561;28;19996;-68
2023/12/15 09:03:34;;;;;;;;;;;7.60;99.90;;;;;;5033106;28;20398;-68
2023/12/15 09:05:59;;;;;;;;;;;7.60;99.90;;;;;;5033725;28;19917;-68
2023/12/15 09:08:25;;;;;;;;;;;7.70;99.90;;;;;;5031779;28;20892;-68
2023/12/15 09:10:51;;;;;;;;;;;7.70;99.90;;;;;;5026339;28;19947;-68
2023/12/15 09:13:19;;;;;;;;;;;7.70;99.90;;;;;;5032190;28;19920;-68
2023/12/15 09:15:44;;;;;;;;;;;7.70;99.90;;;;;;5031909;28;19920;-68
2023/12/15 09:18:10;;;;;;;;;;;7.70;99.90;;;;;;5034272;28;19923;-68
2023/12/15 09:20:35;;;;;;;;;;;7.60;99.90;;;;;;5031864;28;19924;-68
2023/12/15 09:23:05;;;;;;;;;;;7.70;99.90;;;;;;5033715;28;20039;-68
2023/12/15 09:25:33;;;;;;;;;;;7.60;99.90;;;;;;5030502;28;19917;-68
2023/12/15 09:28:02;;;;;;;;;;;7.70;99.90;;;;;;5034413;28;19920;-68
2023/12/15 09:30:31;;;;;;;;;;;7.70;99.90;;;;;;4892569;28;116945;-68
2023/12/15 09:32:56;;;;;;;;;;;7.80;99.90;;;;;;4996072;28;20283;-68
2023/12/15 09:35:21;;;;;;;;;;;7.80;99.90;;;;;;4926027;28;116492;-68
2023/12/15 09:37:47;;;;;;;;;;;7.80;99.90;;;;;;5001585;28;19917;-68
2023/12/15 09:40:13;;;;;;;;;;;7.80;99.90;;;;;;4995847;28;19948;-68
2023/12/15 09:42:39;;;;;;;;;;;7.80;99.90;;;;;;4996278;28;20002;-68
2023/12/15 09:45:05;;;;;;;;;;;7.70;99.90;;;;;;4993204;28;19921;-68
2023/12/15 09:47:33;;;;;;;;;;;7.70;99.90;;;;;;4995510;28;20008;-68
2023/12/15 09:50:01;;;;;;;;;;;7.70;99.90;;;;;;4993044;28;20114;-68
2023/12/15 09:52:31;;;;;;;;;;;7.80;99.90;;;;;;4994213;28;20016;-68
2023/12/15 09:54:59;;;;;;;;;;;7.70;99.90;;;;;;4993473;28;20371;-68
2023/12/15 09:57:24;;;;;;;;;;;7.80;99.90;;;;;;4999735;28;20692;-68
2023/12/15 09:59:50;;;;;;;;;;;7.80;99.90;;;;;;4996194;28;20356;-68
2023/12/15 10:03:22;;;;;;;;;;;7.80;99.90;;;;;;4989430;27;19929;-67
2023/12/15 10:05:50;;;;;;;;;;;7.80;99.90;;;;;;4992157;28;20002;-66
2023/12/15 10:08:15;;;;;;;;;;;7.80;99.90;;;;;;4993019;28;20375;-67
2023/12/15 10:10:41;;;;;;;;;;;7.80;99.90;;;;;;4992289;28;19928;-67
2023/12/15 10:13:07;;;;;;;;;;;7.90;99.90;;;;;;4991877;28;19926;-67
2023/12/15 10:15:32;;;;;;;;;;;7.90;99.90;;;;;;4990675;28;20067;-67
2023/12/15 10:17:58;;;;;;;;;;;7.90;99.90;;;;;;4992824;28;19921;-67
2023/12/15 10:20:24;;;;;;;;;;;7.90;99.90;;;;;;4993643;28;19948;-67
2023/12/15 10:23:04;;;;;;;;;;;7.90;99.90;;;;;;4992234;28;20028;-67
2023/12/15 10:25:32;;;;;;;;;;;8.00;99.90;;;;;;4991104;28;19917;-67
2023/12/15 10:27:58;;;;;;;;;;;8.00;99.90;;;;;;4993637;28;19921;-67
2023/12/15 10:30:23;;;;;;;;;;;8.00;99.90;;;;;;4991123;28;20174;-67
2023/12/15 10:32:49;;;;;;;;;;;8.00;99.90;;;;;;4991952;28;19932;-67
2023/12/15 10:35:16;;;;;;;;;;;8.00;99.90;;;;;;4991628;28;19957;-67
2023/12/15 10:37:45;;;;;;;;;;;8.00;99.90;;;;;;4992730;28;19968;-67
2023/12/15 10:40:11;;;;;;;;;;;8.10;99.90;;;;;;4990646;28;19929;-67
2023/12/15 10:42:37;;;;;;;;;;;8.10;99.90;;;;;;4992326;28;19925;-67
2023/12/15 10:45:04;;;;;;;;;;;8.10;99.90;;;;;;4990746;28;19925;-67
2023/12/15 10:47:31;;;;;;;;;;;8.10;99.90;;;;;;4993545;28;20299;-67
2023/12/15 10:49:57;;;;;;;;;;;8.20;99.90;;;;;;4991201;28;20323;-67
2023/12/15 10:52:23;;;;;;;;;;;8.20;99.90;;;;;;4991931;28;19928;-67
2023/12/15 10:54:52;;;;;;;;;;;8.20;99.90;;;;;;4989314;28;19928;-67
2023/12/15 10:57:22;;;;;;;;;;;8.20;99.90;;;;;;4993013;28;19926;-69
2023/12/15 10:59:51;;;;;;;;;;;8.20;99.90;;;;;;4990007;28;19956;-67
2023/12/15 11:02:17;;;;;;;;;;;8.30;99.90;;;;;;4991873;28;20251;-67
2023/12/15 11:04:45;;;;;;;;;;;8.30;99.90;;;;;;4990177;28;20473;-67
2023/12/15 11:07:11;;;;;;;;;;;8.30;99.90;;;;;;4993256;28;20319;-67
2023/12/15 11:09:38;;;;;;;;;;;8.30;99.90;;;;;;4991084;28;19925;-67
2023/12/15 11:12:22;;;;;;;;;;;8.40;99.90;;;;;;4992024;28;20379;-67
2023/12/15 11:14:53;;;;;;;;;;;8.40;99.90;;;;;;4976743;28;19921;-67
2023/12/15 11:17:20;;;;;;;;;;;8.40;99.90;;;;;;4980600;28;19918;-67
2023/12/15 11:19:48;;;;;;;;;;;8.40;99.90;;;;;;4978247;28;22119;-67
2023/12/15 11:22:14;;;;;;;;;;;8.40;99.90;;;;;;4979976;28;19918;-67
2023/12/15 11:24:40;;;;;;;;;;;8.30;99.90;;;;;;4976996;28;20471;-67
2023/12/15 11:27:05;;;;;;;;;;;8.40;99.90;;;;;;4978824;28;19918;-67
2023/12/15 11:29:35;;;;;;;;;;;8.30;99.90;;;;;;4982890;28;21952;-67
2023/12/15 11:32:23;;;;;;;;;;;8.40;99.90;;;;;;4982623;28;20531;-67
2023/12/15 11:34:48;;;;;;;;;;;8.40;99.90;;;;;;4981645;28;19921;-67
2023/12/15 11:37:14;;;;;;;;;;;8.40;99.90;;;;;;4980293;28;19922;-67
2023/12/15 11:39:42;;;;;;;;;;;8.30;99.90;;;;;;4977715;28;19922;-67
2023/12/15 11:42:09;;;;;;;;;;;8.40;99.90;;;;;;4976304;28;19963;-67
2023/12/15 11:44:36;;;;;;;;;;;8.40;99.90;;;;;;4979128;28;19932;-67
2023/12/15 11:47:04;;;;;;;;;;;8.40;99.90;;;;;;4984163;28;19953;-67
2023/12/15 11:49:29;;;;;;;;;;;8.50;99.90;;;;;;4976119;28;20017;-67
2023/12/15 11:51:57;;;;;;;;;;;8.50;99.90;;;;;;4978303;28;19922;-67
2023/12/15 11:54:25;;;;;;;;;;;8.50;99.90;;;;;;4976629;28;19917;-67
2023/12/15 11:56:51;;;;;;;;;;;8.50;99.90;;;;;;4976605;28;19929;-67
2023/12/15 11:59:16;;;;;;;;;;;8.50;99.90;;;;;;4978106;28;20544;-67
2023/12/15 12:01:42;;;;;;;;;;;8.50;99.90;;;;;;4977222;28;19935;-67
2023/12/15 12:04:18;;;;;;;;;;;8.50;99.90;;;;;;4978011;28;20406;-67
2023/12/15 12:06:45;;;;;;;;;;;8.50;99.90;;;;;;4977094;28;19922;-67
2023/12/15 12:09:12;;;;;;;;;;;8.50;99.90;;;;;;4976080;28;19921;-67
2023/12/15 12:11:38;;;;;;;;;;;8.50;99.90;;;;;;4990401;28;19921;-67
2023/12/15 12:14:07;;;;;;;;;;;8.50;99.90;;;;;;4976485;28;20153;-67
2023/12/15 12:16:32;;;;;;;;;;;8.60;99.90;;;;;;4976861;28;19917;-67
2023/12/15 12:18:58;;;;;;;;;;;8.60;99.90;;;;;;4977348;28;20203;-67
2023/12/15 12:21:23;;;;;;;;;;;8.60;99.90;;;;;;4974875;28;19925;-67
2023/12/15 12:23:52;;;;;;;;;;;8.50;99.90;;;;;;4977873;28;20505;-67
2023/12/15 12:26:17;;;;;;;;;;;8.60;99.90;;;;;;4975547;28;20078;-67
2023/12/15 12:28:50;;;;;;;;;;;8.50;99.90;;;;;;4979948;28;20536;-67
2023/12/15 12:31:16;;;;;;;;;;;8.60;99.90;;;;;;4977344;28;20180;-67
2023/12/15 12:33:41;;;;;;;;;;;8.60;99.90;;;;;;4975684;28;20051;-68
2023/12/15 12:36:09;;;;;;;;;;;8.60;99.90;;;;;;4976122;28;19964;-67
2023/12/15 12:38:35;;;;;;;;;;;8.60;99.90;;;;;;4993516;28;19922;-67
2023/12/15 12:41:05;;;;;;;;;;;8.60;99.90;;;;;;4977065;28;19948;-67
2023/12/15 12:43:31;;;;;;;;;;;8.70;99.90;;;;;;4975316;28;19918;-67
2023/12/15 12:45:57;;;;;;;;;;;8.60;99.90;;;;;;4976040;28;20098;-67
2023/12/15 12:48:25;;;;;;;;;;;8.70;99.90;;;;;;5043030;22;20546;-67
2023/12/15 12:50:50;;;;;;;;;;;8.80;99.90;;;;;;5019401;28;20277;-67
2023/12/15 12:53:15;;;;;;;;;;;8.70;99.90;;;;;;4992453;28;19928;-67
2023/12/15 12:55:41;;;;;;;;;;;8.80;99.90;;;;;;4982856;28;19921;-68
2023/12/15 12:58:07;;;;;;;;;;;8.80;99.90;;;;;;4984181;28;19921;-67
2023/12/15 13:00:32;;;;;;;;;;;8.80;99.90;;;;;;4996650;28;20610;-67
2023/12/15 13:02:58;;;;;;;;;;;8.90;99.90;;;;;;4978819;28;19925;-67
2023/12/15 13:05:23;;;;;;;;;;;8.90;99.90;;;;;;4982030;28;19959;-67
2023/12/15 13:07:49;;;;;;;;;;;8.90;99.90;;;;;;4982009;28;19917;-68
2023/12/15 13:10:14;;;;;;;;;;;9.00;99.90;;;;;;4981136;28;19976;-67
2023/12/15 13:12:44;;;;;;;;;;;8.90;99.90;;;;;;4984113;28;19922;-67
2023/12/15 13:15:13;;;;;;;;;;;8.90;99.90;;;;;;4982676;28;19922;-67
2023/12/15 13:17:39;;;;;;;;;;;9.00;99.90;;;;;;4982615;28;20007;-67
2023/12/15 13:20:09;;;;;;;;;;;9.00;99.90;;;;;;4983910;28;19922;-67
2023/12/15 13:22:37;;;;;;;;;;;9.10;99.90;;;;;;4980833;28;20494;-68
2023/12/15 13:25:07;;;;;;;;;;;9.20;99.90;;;;;;4983397;28;21866;-67
2023/12/15 13:27:35;;;;;;;;;;;9.10;99.90;;;;;;4982129;28;19925;-67
2023/12/15 13:30:00;;;;;;;;;;;9.10;99.90;;;;;;4981996;28;20528;-67
2023/12/15 13:32:26;;;;;;;;;;;9.10;99.90;;;;;;4978787;28;19921;-67
2023/12/15 13:34:51;;;;;;;;;;;9.10;99.90;;;;;;4982601;28;21109;-67
2023/12/15 13:37:19;;;;;;;;;;;9.10;99.90;;;;;;4983012;28;19967;-67
2023/12/15 13:39:44;;;;;;;;;;;9.10;99.90;;;;;;4981717;28;19922;-67
2023/12/15 13:42:10;;;;;;;;;;;9.10;99.90;;;;;;4983066;28;19925;-67
2023/12/15 13:44:36;;;;;;;;;;;9.00;99.90;;;;;;4982310;28;19976;-67
2023/12/15 13:47:03;;;;;;;;;;;9.00;99.90;;;;;;4981998;28;19921;-67
2023/12/15 13:49:31;;;;;;;;;;;9.10;99.90;;;;;;4981483;28;19921;-67
2023/12/15 13:51:57;;;;;;;;;;;9.20;99.90;;;;;;4983819;28;19932;-67
2023/12/15 13:54:23;;;;;;;;;;;9.20;99.90;;;;;;4981574;28;19921;-67
2023/12/15 13:56:52;;;;;;;;;;;9.20;99.90;;;;;;4984846;28;19917;-67
2023/12/15 13:59:19;;;;;;;;;;;9.20;99.90;;;;;;4981629;28;19921;-67
2023/12/15 14:01:47;;;;;;;;;;;9.10;99.90;;;;;;4982356;28;19957;-67
2023/12/15 14:04:15;;;;;;;;;;;9.10;99.90;;;;;;4981332;28;20327;-67
2023/12/15 14:06:41;;;;;;;;;;;9.10;99.90;;;;;;4980476;28;19937;-67
2023/12/15 14:09:07;;;;;;;;;;;9.10;99.90;;;;;;4982140;28;20558;-67
2023/12/15 14:11:33;;;;;;;;;;;9.10;99.90;;;;;;4984088;28;19921;-67
2023/12/15 14:13:58;;;;;;;;;;;9.10;99.90;;;;;;4979953;28;19921;-67
2023/12/15 14:16:24;;;;;;;;;;;9.00;99.90;;;;;;4981364;28;19922;-67
2023/12/15 14:18:50;;;;;;;;;;;9.10;99.90;;;;;;4982107;28;20023;-67
2023/12/15 14:21:18;;;;;;;;;;;9.00;99.90;;;;;;4982260;28;19913;-67
2023/12/15 14:23:43;;;;;;;;;;;9.00;99.90;;;;;;4981553;28;19929;-67
2023/12/15 14:26:09;;;;;;;;;;;9.00;99.90;;;;;;5012194;28;19999;-67
2023/12/15 14:28:34;;;;;;;;;;;9.00;99.90;;;;;;4984117;28;20418;-67